Time;durP1;ratioP1;P1;durP2;ratioP2;P2;SDS_P1;SDS_P2;PMS_P1;PMS_P2;Temp;Humidity;BMP_temperature;BMP_pressure;BME280_temperature;BME280_humidity;BME280_pressure;Samples;Min_cycle;Max_cycle;Signal;HPM_P1;HPM_P2
2023/06/13 00:01:15;;;;;;;4.10;2.90;;;18.60;46.60;;;;;;5121393;27;20664;-75
2023/06/13 00:03:41;;;;;;;1.97;1.53;;;18.50;46.50;;;;;;5121153;27;20967;-75
2023/06/13 00:06:09;;;;;;;1.60;1.50;;;18.60;46.80;;;;;;5117703;27;20658;-75
2023/06/13 00:08:35;;;;;;;2.47;1.80;;;18.50;46.90;;;;;;5118684;27;21231;-75
2023/06/13 00:11:02;;;;;;;2.43;2.23;;;18.40;47.10;;;;;;5120338;27;20650;-75
2023/06/13 00:13:29;;;;;;;2.90;2.00;;;18.50;47.20;;;;;;5121748;27;20980;-75
2023/06/13 00:15:58;;;;;;;4.00;1.87;;;18.40;47.10;;;;;;5120328;27;21283;-75
2023/06/13 00:18:29;;;;;;;2.60;2.27;;;18.50;47.30;;;;;;5118030;27;20742;-75
2023/06/13 00:20:58;;;;;;;2.37;2.00;;;18.50;47.30;;;;;;5117965;27;20647;-75
2023/06/13 00:23:26;;;;;;;2.83;2.20;;;18.40;47.50;;;;;;5121560;27;21156;-75
2023/06/13 00:25:54;;;;;;;3.00;2.80;;;18.30;47.50;;;;;;5120640;27;20790;-75
2023/06/13 00:28:21;;;;;;;2.90;2.30;;;18.30;48.00;;;;;;5118445;27;20663;-75
2023/06/13 00:30:48;;;;;;;1.73;1.63;;;18.20;47.50;;;;;;5117598;27;20695;-75
2023/06/13 00:33:16;;;;;;;2.17;1.97;;;18.20;47.80;;;;;;5118053;27;20727;-75
2023/06/13 00:35:44;;;;;;;2.77;2.17;;;18.20;47.90;;;;;;5121536;27;20749;-75
2023/06/13 00:38:12;;;;;;;2.30;1.70;;;18.10;47.80;;;;;;5121127;27;20626;-75
2023/06/13 00:40:40;;;;;;;4.10;2.00;;;18.10;48.10;;;;;;5109278;27;20658;-75
2023/06/13 00:43:06;;;;;;;2.53;2.33;;;18.10;48.10;;;;;;5117456;27;20654;-75
2023/06/13 00:45:34;;;;;;;4.50;2.53;;;18.10;48.30;;;;;;5119231;27;21227;-75
2023/06/13 00:48:03;;;;;;;2.90;2.10;;;18.10;48.20;;;;;;5120791;27;21007;-75
2023/06/13 00:50:32;;;;;;;1.50;1.40;;;17.90;48.70;;;;;;5119584;27;21225;-76
2023/06/13 00:53:03;;;;;;;4.40;2.00;;;18.00;48.60;;;;;;5116606;27;20611;-75
2023/06/13 00:55:31;;;;;;;3.73;1.90;;;18.00;48.50;;;;;;5117803;27;20648;-75
2023/06/13 00:58:04;;;;;;;1.80;1.70;;;17.90;48.70;;;;;;5120606;27;20630;-75
2023/06/13 01:00:31;;;;;;;3.90;2.33;;;17.80;49.00;;;;;;5119257;27;21037;-75
2023/06/13 01:02:58;;;;;;;2.70;2.30;;;17.90;48.80;;;;;;5120228;27;20614;-75
2023/06/13 01:05:28;;;;;;;2.77;1.87;;;17.80;49.00;;;;;;5118785;27;21204;-75
2023/06/13 01:07:57;;;;;;;2.40;1.77;;;17.70;49.30;;;;;;5118907;27;20672;-75
2023/06/13 01:10:26;;;;;;;2.70;1.83;;;17.70;49.10;;;;;;5116821;27;21276;-75
2023/06/13 01:13:08;;;;;;;2.33;1.93;;;17.80;49.10;;;;;;5117860;27;20646;-75
2023/06/13 01:15:41;;;;;;;2.93;2.40;;;17.70;49.30;;;;;;5120693;27;20692;-75
2023/06/13 01:18:11;;;;;;;2.77;2.27;;;17.60;49.50;;;;;;5117995;27;21297;-75
2023/06/13 01:20:40;;;;;;;2.10;1.57;;;17.60;49.80;;;;;;5116508;27;20651;-76
2023/06/13 01:23:22;;;;;;;1.57;1.43;;;17.50;49.60;;;;;;5118477;27;20614;-75
2023/06/13 01:26:03;;;;;;;3.60;2.10;;;17.50;49.80;;;;;;5120227;27;20652;-75
2023/06/13 01:28:34;;;;;;;2.20;1.97;;;17.50;50.00;;;;;;5109601;27;21248;-76
2023/06/13 01:31:03;;;;;;;2.43;1.90;;;17.50;49.80;;;;;;5115605;27;20650;-75
2023/06/13 01:33:31;;;;;;;2.00;1.70;;;17.50;50.00;;;;;;5108180;27;20622;-76
2023/06/13 01:35:58;;;;;;;2.30;2.10;;;17.50;50.10;;;;;;5116629;27;20642;-75
2023/06/13 01:38:26;;;;;;;3.20;2.03;;;17.40;50.40;;;;;;5118964;27;21107;-75
2023/06/13 01:40:53;;;;;;;2.13;1.70;;;17.30;50.30;;;;;;5119349;27;20655;-75
2023/06/13 01:43:20;;;;;;;2.20;2.00;;;17.30;50.60;;;;;;5117493;27;21091;-75
2023/06/13 01:45:51;;;;;;;3.37;2.50;;;17.20;50.40;;;;;;5119967;27;20752;-75
2023/06/13 01:48:31;;;;;;;3.90;3.60;;;17.20;50.60;;;;;;5119603;27;20672;-76
2023/06/13 01:51:08;;;;;;;2.27;2.13;;;17.20;50.70;;;;;;5108269;27;20657;-75
2023/06/13 01:53:40;;;;;;;2.60;2.10;;;17.20;50.70;;;;;;5118281;27;20628;-75
2023/06/13 01:56:13;;;;;;;2.60;1.80;;;17.10;50.80;;;;;;5119875;27;20649;-75
2023/06/13 01:58:48;;;;;;;2.07;1.97;;;17.10;51.00;;;;;;5118863;27;20739;-75
2023/06/13 02:01:19;;;;;;;2.77;2.10;;;17.10;51.10;;;;;;5119615;27;20656;-75
2023/06/13 02:03:47;;;;;;;3.60;2.50;;;17.00;51.10;;;;;;5118293;27;20628;-75
2023/06/13 02:06:15;;;;;;;2.73;2.27;;;17.00;51.50;;;;;;5116442;27;20661;-75
2023/06/13 02:08:43;;;;;;;3.53;2.00;;;17.00;51.40;;;;;;5116398;27;20665;-75
2023/06/13 02:11:10;;;;;;;2.33;2.13;;;16.90;51.60;;;;;;5118858;27;20739;-75
2023/06/13 02:13:37;;;;;;;3.70;2.40;;;16.90;51.50;;;;;;5119570;27;20611;-75
2023/06/13 02:16:04;;;;;;;1.70;1.60;;;16.80;51.80;;;;;;5117370;28;20640;-75
2023/06/13 02:18:33;;;;;;;2.10;1.80;;;16.80;51.90;;;;;;5116469;28;20651;-75
2023/06/13 02:20:59;;;;;;;2.43;2.13;;;16.80;51.80;;;;;;5116265;27;20707;-75
2023/06/13 02:23:26;;;;;;;2.03;1.67;;;16.70;51.90;;;;;;5119012;28;20648;-75
2023/06/13 02:25:53;;;;;;;2.03;1.93;;;16.70;51.80;;;;;;5119129;27;20811;-75
2023/06/13 02:28:20;;;;;;;1.60;1.43;;;16.80;52.00;;;;;;5116878;28;21116;-75
2023/06/13 02:30:47;;;;;;;1.77;1.53;;;16.60;52.10;;;;;;5115487;27;20661;-75
2023/06/13 02:33:15;;;;;;;2.23;2.00;;;16.60;52.20;;;;;;5117751;28;20622;-75
2023/06/13 02:35:44;;;;;;;1.90;1.80;;;16.60;52.20;;;;;;5119211;28;20634;-75
2023/06/13 02:38:11;;;;;;;1.87;1.70;;;16.50;52.40;;;;;;5118792;28;20632;-75
2023/06/13 02:40:39;;;;;;;3.23;2.13;;;16.50;52.50;;;;;;5115474;28;20715;-75
2023/06/13 02:43:08;;;;;;;2.67;2.30;;;16.50;52.50;;;;;;5116070;28;20741;-76
2023/06/13 02:45:35;;;;;;;2.23;2.03;;;16.50;52.50;;;;;;5118364;28;21088;-75
2023/06/13 02:48:03;;;;;;;3.50;1.40;;;16.50;52.40;;;;;;5119727;27;20629;-75
2023/06/13 02:50:30;;;;;;;2.17;1.87;;;16.50;53.00;;;;;;5121245;27;20650;-75
2023/06/13 02:52:59;;;;;;;2.43;1.83;;;16.40;53.00;;;;;;5120084;27;20732;-75
2023/06/13 02:55:28;;;;;;;2.63;2.20;;;16.30;52.90;;;;;;5120225;27;20645;-75
2023/06/13 02:57:57;;;;;;;3.53;2.40;;;16.30;52.80;;;;;;5111687;27;20622;-75
2023/06/13 03:00:24;;;;;;;2.47;2.27;;;16.40;52.70;;;;;;5109044;28;20734;-75
2023/06/13 03:02:52;;;;;;;2.23;2.03;;;16.30;52.80;;;;;;5121935;27;20621;-75
2023/06/13 03:05:20;;;;;;;3.43;2.50;;;16.20;53.00;;;;;;5122531;27;20983;-74
2023/06/13 03:07:48;;;;;;;2.50;2.30;;;16.10;53.10;;;;;;5122186;27;20616;-75
2023/06/13 03:10:18;;;;;;;2.43;2.07;;;16.20;52.90;;;;;;5119185;27;20621;-75
2023/06/13 03:12:46;;;;;;;1.90;1.80;;;16.20;52.90;;;;;;5119730;27;20633;-75
2023/06/13 03:15:13;;;;;;;2.53;1.90;;;16.20;52.90;;;;;;5111547;27;20724;-75
2023/06/13 03:17:40;;;;;;;1.80;1.63;;;16.20;53.00;;;;;;5119623;27;20653;-75
2023/06/13 03:20:09;;;;;;;2.73;2.50;;;16.00;53.20;;;;;;5121168;27;20637;-75
2023/06/13 03:22:38;;;;;;;1.93;1.83;;;16.00;53.00;;;;;;5122818;27;20619;-75
2023/06/13 03:25:06;;;;;;;2.43;1.87;;;16.00;52.90;;;;;;5121611;27;20628;-74
2023/06/13 03:27:35;;;;;;;2.50;1.53;;;15.90;53.20;;;;;;5119250;27;20674;-75
2023/06/13 03:30:04;;;;;;;2.67;2.47;;;15.90;53.10;;;;;;5118894;27;20673;-76
2023/06/13 03:32:31;;;;;;;2.80;2.07;;;15.90;53.20;;;;;;5122195;27;20941;-75
2023/06/13 03:34:58;;;;;;;1.77;1.67;;;15.80;53.10;;;;;;5122248;27;20614;-75
2023/06/13 03:37:25;;;;;;;1.33;1.23;;;15.90;53.10;;;;;;5120229;27;20701;-75
2023/06/13 03:39:52;;;;;;;2.27;1.80;;;15.90;53.00;;;;;;5108300;28;21233;-75
2023/06/13 03:42:18;;;;;;;2.27;2.07;;;16.00;52.90;;;;;;5125034;27;20729;-75
2023/06/13 03:44:48;;;;;;;2.53;2.23;;;16.00;52.80;;;;;;5118874;27;21149;-75
2023/06/13 03:47:16;;;;;;;3.50;2.30;;;16.10;52.70;;;;;;5119304;27;20656;-75
2023/06/13 03:49:43;;;;;;;1.23;1.13;;;16.00;53.10;;;;;;5121121;27;20715;-75
2023/06/13 03:52:11;;;;;;;1.77;1.67;;;15.90;53.00;;;;;;5121965;27;20651;-75
2023/06/13 03:54:38;;;;;;;2.77;2.20;;;15.90;53.10;;;;;;5120319;27;20607;-75
2023/06/13 03:57:06;;;;;;;1.83;1.73;;;15.90;53.20;;;;;;5118844;27;20702;-75
2023/06/13 03:59:34;;;;;;;2.87;2.50;;;16.00;53.10;;;;;;5124430;27;20663;-75
2023/06/13 04:02:02;;;;;;;2.53;2.33;;;16.10;53.10;;;;;;5118696;27;20692;-75
2023/06/13 04:04:29;;;;;;;1.70;1.60;;;16.10;53.10;;;;;;5119057;27;20629;-75
2023/06/13 04:06:56;;;;;;;2.07;1.97;;;16.20;52.90;;;;;;5120945;27;20645;-75
2023/06/13 04:09:23;;;;;;;2.20;2.00;;;16.20;52.80;;;;;;5121343;27;20679;-75
2023/06/13 04:11:50;;;;;;;3.00;1.87;;;16.10;53.20;;;;;;5120464;27;20735;-75
2023/06/13 04:14:17;;;;;;;2.60;2.17;;;16.00;53.10;;;;;;5118408;27;20665;-75
2023/06/13 04:16:44;;;;;;;3.50;1.83;;;16.10;52.70;;;;;;5118691;27;20687;-75
2023/06/13 04:19:14;;;;;;;3.67;2.10;;;16.00;52.70;;;;;;5120346;27;20627;-76
2023/06/13 04:21:40;;;;;;;1.70;1.60;;;16.10;52.70;;;;;;5121556;27;20755;-75
2023/06/13 04:24:07;;;;;;;1.80;1.60;;;16.20;52.70;;;;;;5120245;27;20982;-75
2023/06/13 04:26:35;;;;;;;2.23;2.03;;;16.20;52.80;;;;;;5117381;27;21133;-75
2023/06/13 04:29:02;;;;;;;2.10;1.90;;;16.30;52.70;;;;;;5117893;27;20669;-75
2023/06/13 04:31:35;;;;;;;1.60;1.50;;;16.20;52.70;;;;;;5121180;27;20660;-76
2023/06/13 04:34:03;;;;;;;2.00;1.53;;;16.40;52.60;;;;;;5121331;27;20625;-75
2023/06/13 04:36:33;;;;;;;3.10;2.00;;;16.40;52.50;;;;;;5118205;27;20646;-75
2023/06/13 04:39:06;;;;;;;2.00;1.80;;;16.40;52.50;;;;;;5116775;27;21050;-75
2023/06/13 04:41:34;;;;;;;2.40;1.37;;;16.40;52.70;;;;;;5120884;27;20657;-75
2023/06/13 04:44:05;;;;;;;2.53;2.20;;;16.50;52.50;;;;;;5120948;27;20673;-75
2023/06/13 04:46:31;;;;;;;3.40;1.80;;;16.50;52.60;;;;;;5119652;27;20652;-77
2023/06/13 04:48:58;;;;;;;2.63;1.50;;;16.50;52.60;;;;;;5117072;27;20657;-77
2023/06/13 04:51:26;;;;;;;1.90;1.80;;;16.50;52.50;;;;;;5116043;27;20657;-77
2023/06/13 04:53:57;;;;;;;1.50;1.40;;;16.50;52.40;;;;;;5120962;27;20671;-76
2023/06/13 04:56:24;;;;;;;4.30;1.60;;;16.50;52.40;;;;;;5121153;27;20652;-76
2023/06/13 04:58:52;;;;;;;2.90;2.70;;;16.50;52.50;;;;;;5119614;27;20666;-76
2023/06/13 05:01:20;;;;;;;2.10;1.90;;;16.60;52.50;;;;;;5120688;27;20659;-76
2023/06/13 05:03:49;;;;;;;1.63;1.53;;;16.80;52.60;;;;;;5118901;27;20622;-75
2023/06/13 05:06:16;;;;;;;1.97;1.23;;;16.90;52.50;;;;;;5117239;27;20987;-76
2023/06/13 05:08:43;;;;;;;2.40;2.20;;;17.00;52.30;;;;;;5117764;27;20614;-76
2023/06/13 05:11:12;;;;;;;2.40;1.80;;;17.00;51.80;;;;;;5119910;27;20753;-76
2023/06/13 05:13:38;;;;;;;3.00;2.10;;;17.00;52.00;;;;;;5120661;27;21189;-76
2023/06/13 05:16:05;;;;;;;3.47;2.50;;;17.00;50.90;;;;;;5118149;27;20655;-76
2023/06/13 05:18:33;;;;;;;2.00;1.80;;;17.00;51.80;;;;;;5116818;27;20650;-75
2023/06/13 05:21:00;;;;;;;2.10;1.40;;;17.00;51.70;;;;;;5117366;27;20821;-76
2023/06/13 05:23:28;;;;;;;1.30;1.20;;;17.10;50.40;;;;;;5120841;27;21019;-76
2023/06/13 05:25:55;;;;;;;2.10;1.73;;;17.10;50.50;;;;;;5120154;27;20667;-76
2023/06/13 05:28:23;;;;;;;1.80;1.30;;;17.00;50.30;;;;;;5117672;27;20618;-76
2023/06/13 05:30:51;;;;;;;2.30;1.60;;;17.00;50.30;;;;;;5115994;27;20677;-76
2023/06/13 05:33:18;;;;;;;1.43;1.33;;;16.90;50.40;;;;;;5118060;27;20725;-76
2023/06/13 05:35:45;;;;;;;2.60;1.97;;;17.00;50.30;;;;;;5119965;27;21230;-76
2023/06/13 05:38:12;;;;;;;2.67;2.00;;;17.10;50.00;;;;;;5119939;27;20613;-76
2023/06/13 05:40:40;;;;;;;2.03;1.83;;;17.20;49.80;;;;;;5116101;27;20646;-76
2023/06/13 05:43:08;;;;;;;1.57;1.47;;;17.20;49.70;;;;;;5116745;27;20618;-76
2023/06/13 05:45:36;;;;;;;2.70;1.77;;;17.30;48.70;;;;;;5118865;27;20673;-75
2023/06/13 05:48:02;;;;;;;1.07;1.07;;;17.30;48.30;;;;;;5119859;27;20621;-76
2023/06/13 05:50:29;;;;;;;1.60;1.50;;;17.20;48.40;;;;;;5118271;27;20678;-76
2023/06/13 05:52:56;;;;;;;4.80;1.67;;;17.30;48.00;;;;;;5115219;27;20624;-76
2023/06/13 05:55:23;;;;;;;2.70;1.60;;;17.50;46.90;;;;;;5116863;27;20650;-76
2023/06/13 05:57:50;;;;;;;1.77;1.67;;;17.40;46.10;;;;;;5119283;27;20623;-76
2023/06/13 06:00:17;;;;;;;2.10;1.90;;;17.40;46.50;;;;;;5119777;27;20946;-75
2023/06/13 06:02:47;;;;;;;2.30;2.10;;;17.50;47.30;;;;;;5118511;27;20622;-76
2023/06/13 06:05:14;;;;;;;1.73;1.63;;;17.70;47.60;;;;;;5119653;27;20616;-76
2023/06/13 06:07:42;;;;;;;2.50;1.83;;;17.90;46.90;;;;;;5119554;27;21009;-76
2023/06/13 06:10:10;;;;;;;1.90;1.57;;;17.80;46.00;;;;;;5115439;28;20673;-76
2023/06/13 06:12:37;;;;;;;2.23;1.70;;;17.80;45.90;;;;;;5116309;28;20731;-75
2023/06/13 06:15:05;;;;;;;1.77;1.63;;;17.80;45.90;;;;;;5118744;28;20987;-75
2023/06/13 06:17:32;;;;;;;3.73;1.40;;;17.80;45.10;;;;;;5120212;27;20625;-75
2023/06/13 06:20:01;;;;;;;2.20;1.80;;;17.80;45.00;;;;;;5117300;28;21184;-75
2023/06/13 06:22:27;;;;;;;2.30;2.10;;;17.80;46.20;;;;;;5116716;27;20652;-76
2023/06/13 06:24:54;;;;;;;1.67;1.57;;;17.90;45.50;;;;;;5120278;27;20624;-75
2023/06/13 06:27:21;;;;;;;1.63;1.50;;;18.10;45.50;;;;;;5123031;27;20652;-76
2023/06/13 06:29:48;;;;;;;1.83;1.73;;;18.10;45.40;;;;;;5123064;27;20673;-76
2023/06/13 06:32:14;;;;;;;1.93;1.63;;;18.10;45.90;;;;;;5121818;27;20662;-75
2023/06/13 06:34:41;;;;;;;1.50;1.40;;;18.10;44.90;;;;;;5120477;27;20654;-76
2023/06/13 06:37:10;;;;;;;2.13;1.93;;;18.20;44.30;;;;;;5120723;27;20646;-75
2023/06/13 06:39:37;;;;;;;2.90;2.30;;;18.20;43.90;;;;;;5111881;27;20602;-76
2023/06/13 06:42:04;;;;;;;3.03;1.70;;;18.10;44.00;;;;;;5124370;27;20648;-76
2023/06/13 06:44:31;;;;;;;2.13;1.87;;;18.20;44.30;;;;;;5121611;27;20655;-75
2023/06/13 06:46:58;;;;;;;2.17;1.97;;;18.30;44.10;;;;;;5120348;27;20669;-76
2023/06/13 06:49:24;;;;;;;1.43;1.33;;;18.40;43.70;;;;;;5119847;27;20765;-76
2023/06/13 06:51:51;;;;;;;1.50;1.40;;;18.30;43.20;;;;;;5121770;27;20645;-75
2023/06/13 06:54:19;;;;;;;1.50;1.40;;;18.40;43.20;;;;;;5122976;27;21189;-76
2023/06/13 06:56:46;;;;;;;2.53;2.00;;;18.40;43.10;;;;;;5120567;27;20649;-75
2023/06/13 06:59:13;;;;;;;1.80;1.70;;;18.60;44.30;;;;;;5125064;27;20628;-75
2023/06/13 07:01:40;;;;;;;2.97;2.10;;;18.80;43.90;;;;;;5122047;27;20643;-75
2023/06/13 07:04:06;;;;;;;1.90;1.47;;;18.80;42.50;;;;;;5115025;27;20999;-75
2023/06/13 07:06:33;;;;;;;1.40;1.30;;;18.80;42.40;;;;;;5110298;27;20632;-75
2023/06/13 07:09:03;;;;;;;1.60;1.50;;;18.80;42.60;;;;;;5105374;27;20629;-75
2023/06/13 07:11:31;;;;;;;2.17;1.97;;;18.90;42.20;;;;;;5102276;28;20726;-75
2023/06/13 07:13:58;;;;;;;3.40;1.90;;;18.90;41.60;;;;;;5116931;27;20611;-75
2023/06/13 07:16:24;;;;;;;2.03;1.80;;;19.00;42.20;;;;;;5119398;27;20689;-75
2023/06/13 07:18:52;;;;;;;1.73;1.63;;;19.10;42.20;;;;;;5119598;27;20624;-75
2023/06/13 07:21:19;;;;;;;1.47;1.37;;;19.20;42.10;;;;;;5122519;27;20645;-76
2023/06/13 07:23:46;;;;;;;1.83;1.70;;;19.30;41.20;;;;;;5122759;27;20619;-75
2023/06/13 07:26:14;;;;;;;2.50;2.07;;;19.20;42.30;;;;;;5120219;27;20651;-76
2023/06/13 07:28:42;;;;;;;1.97;1.87;;;19.30;42.10;;;;;;5119248;27;20625;-76
2023/06/13 07:31:09;;;;;;;1.80;1.70;;;19.50;42.00;;;;;;5119736;27;20774;-76
2023/06/13 07:33:36;;;;;;;1.63;1.53;;;19.60;41.10;;;;;;5122509;27;20603;-75
2023/06/13 07:36:03;;;;;;;1.70;1.60;;;19.70;41.20;;;;;;5122061;27;20651;-75
2023/06/13 07:38:29;;;;;;;2.17;1.97;;;19.60;41.60;;;;;;5119483;27;20986;-76
2023/06/13 07:40:56;;;;;;;2.13;1.93;;;19.90;41.40;;;;;;5118593;27;20652;-75
2023/06/13 07:43:23;;;;;;;1.57;1.27;;;20.00;41.30;;;;;;5118153;27;20620;-75
2023/06/13 07:45:51;;;;;;;1.80;1.70;;;19.90;41.40;;;;;;5122705;27;20676;-76
2023/06/13 07:48:18;;;;;;;1.70;1.60;;;20.00;40.60;;;;;;5122206;27;21027;-75
2023/06/13 07:50:46;;;;;;;2.10;1.70;;;20.00;40.90;;;;;;5109058;27;21220;-75
2023/06/13 07:53:13;;;;;;;1.80;1.70;;;20.00;40.30;;;;;;5117453;27;20619;-75
2023/06/13 07:55:40;;;;;;;2.10;1.80;;;20.20;41.60;;;;;;5120600;27;20761;-75
2023/06/13 07:58:08;;;;;;;1.67;1.57;;;20.30;40.20;;;;;;5122007;27;21016;-76
2023/06/13 08:00:35;;;;;;;1.67;1.57;;;20.40;40.30;;;;;;5127075;27;20731;-75
2023/06/13 08:03:03;;;;;;;2.47;2.37;;;20.40;40.20;;;;;;5118335;27;21123;-76
2023/06/13 08:05:30;;;;;;;2.43;1.87;;;20.30;40.30;;;;;;5118578;27;20720;-75
2023/06/13 08:07:57;;;;;;;11.23;2.47;;;20.40;40.70;;;;;;5121701;27;20717;-74
2023/06/13 08:10:25;;;;;;;2.90;1.70;;;20.20;40.90;;;;;;5121121;27;20759;-76
2023/06/13 08:12:52;;;;;;;1.50;1.33;;;20.50;40.70;;;;;;5120303;27;20626;-76
2023/06/13 08:15:19;;;;;;;3.03;2.03;;;20.60;40.70;;;;;;5117855;27;20719;-75
2023/06/13 08:17:46;;;;;;;1.63;1.53;;;20.90;40.80;;;;;;5118323;27;20972;-75
2023/06/13 08:20:14;;;;;;;2.23;2.03;;;20.80;40.70;;;;;;5120752;27;20619;-76
2023/06/13 08:22:41;;;;;;;1.80;1.70;;;21.10;41.30;;;;;;5121434;27;20747;-76
2023/06/13 08:25:09;;;;;;;2.13;1.97;;;21.30;40.70;;;;;;5119695;27;20623;-76
2023/06/13 08:27:36;;;;;;;2.07;1.80;;;21.30;39.80;;;;;;5118242;27;21018;-75
2023/06/13 08:30:04;;;;;;;2.10;1.80;;;21.30;40.70;;;;;;5117266;27;20647;-75
2023/06/13 08:32:32;;;;;;;3.93;2.20;;;21.40;41.00;;;;;;5120928;27;20954;-75
2023/06/13 08:34:59;;;;;;;3.30;1.97;;;21.50;40.80;;;;;;5121500;27;20635;-75
2023/06/13 08:37:27;;;;;;;3.43;2.47;;;21.60;39.80;;;;;;5118327;27;20655;-75
2023/06/13 08:39:55;;;;;;;1.90;1.70;;;21.60;40.40;;;;;;5117498;27;20609;-76
2023/06/13 08:42:22;;;;;;;1.90;1.80;;;21.80;41.10;;;;;;5124688;27;20675;-76
2023/06/13 08:44:49;;;;;;;1.83;1.70;;;21.80;40.00;;;;;;5117357;27;20728;-76
2023/06/13 08:47:18;;;;;;;1.93;1.73;;;21.90;39.20;;;;;;5116817;27;20795;-76
2023/06/13 08:49:55;;;;;;;4.73;3.03;;;21.90;39.00;;;;;;5108550;27;20681;-75
2023/06/13 08:52:24;;;;;;;4.07;2.30;;;21.90;39.00;;;;;;5115991;27;20647;-76
2023/06/13 08:54:53;;;;;;;2.40;2.20;;;22.00;38.90;;;;;;5109600;27;20701;-76
2023/06/13 08:57:22;;;;;;;2.40;2.20;;;22.10;39.80;;;;;;5116806;27;20648;-76
2023/06/13 08:59:52;;;;;;;1.70;1.60;;;22.20;39.60;;;;;;5125262;27;21044;-76
2023/06/13 09:02:20;;;;;;;2.30;2.03;;;22.30;39.20;;;;;;5117351;27;20655;-75
2023/06/13 09:04:48;;;;;;;2.53;2.33;;;22.50;40.40;;;;;;5118594;27;20634;-76
2023/06/13 09:07:16;;;;;;;2.60;2.40;;;22.40;39.90;;;;;;5120518;27;20690;-76
2023/06/13 09:09:43;;;;;;;2.57;2.37;;;22.30;40.10;;;;;;5119143;27;20968;-75
2023/06/13 09:12:13;;;;;;;3.10;2.60;;;22.50;39.90;;;;;;5117041;27;20675;-76
2023/06/13 09:14:40;;;;;;;3.77;2.77;;;22.60;39.90;;;;;;5117397;27;20954;-75
2023/06/13 09:17:08;;;;;;;1.80;1.70;;;22.80;40.00;;;;;;5120072;27;20651;-76
2023/06/13 09:19:35;;;;;;;3.73;2.77;;;22.70;39.10;;;;;;5119924;27;20711;-75
2023/06/13 09:22:02;;;;;;;2.70;2.50;;;22.80;39.90;;;;;;5118717;27;20671;-76
2023/06/13 09:24:31;;;;;;;2.80;2.60;;;23.00;39.20;;;;;;5116640;27;20628;-76
2023/06/13 09:26:58;;;;;;;2.27;2.07;;;23.20;39.20;;;;;;5117330;27;20652;-75
2023/06/13 09:29:33;;;;;;;3.00;2.70;;;23.20;38.40;;;;;;5108309;27;20652;-75
2023/06/13 09:32:00;;;;;;;2.43;2.23;;;23.20;38.00;;;;;;5116571;27;20680;-75
2023/06/13 09:34:28;;;;;;;6.60;3.07;;;23.40;37.60;;;;;;5120244;27;20624;-76
2023/06/13 09:36:56;;;;;;;3.20;2.20;;;23.30;37.20;;;;;;5119292;27;20643;-75
2023/06/13 09:39:23;;;;;;;1.50;1.43;;;23.20;37.20;;;;;;5117837;27;20718;-76
2023/06/13 09:41:53;;;;;;;2.37;2.17;;;23.30;37.80;;;;;;5119971;27;20651;-76
2023/06/13 09:44:22;;;;;;;4.00;2.40;;;23.50;38.10;;;;;;5119315;27;20626;-75
2023/06/13 09:46:51;;;;;;;2.90;2.70;;;23.60;37.70;;;;;;5116401;27;20654;-76
2023/06/13 09:49:19;;;;;;;2.80;2.60;;;23.80;37.20;;;;;;5115726;27;20620;-75
2023/06/13 09:51:46;;;;;;;2.90;2.60;;;23.70;36.80;;;;;;5106393;27;20672;-75
2023/06/13 09:54:15;;;;;;;9.60;2.43;;;23.80;37.30;;;;;;5116630;27;21160;-76
2023/06/13 09:56:42;;;;;;;2.80;2.60;;;23.80;36.30;;;;;;5118649;27;20660;-76
2023/06/13 09:59:15;;;;;;;2.40;2.20;;;24.00;37.60;;;;;;5119329;27;20627;-76
2023/06/13 10:01:42;;;;;;;4.73;2.87;;;23.90;37.90;;;;;;5118182;27;20647;-75
2023/06/13 10:04:10;;;;;;;2.17;2.07;;;24.10;36.80;;;;;;5116230;27;20617;-75
2023/06/13 10:06:37;;;;;;;1.87;1.77;;;24.00;37.40;;;;;;5116267;27;21279;-76
2023/06/13 10:09:05;;;;;;;2.80;2.60;;;24.00;37.80;;;;;;5107550;27;21036;-76
2023/06/13 10:11:35;;;;;;;2.50;2.30;;;24.10;37.70;;;;;;5116372;27;20696;-76
2023/06/13 10:14:06;;;;;;;3.33;3.10;;;24.30;37.30;;;;;;5118812;28;21002;-75
2023/06/13 10:16:38;;;;;;;3.53;2.20;;;24.20;36.40;;;;;;5119379;27;20647;-75
2023/06/13 10:19:06;;;;;;;2.60;2.40;;;24.30;36.90;;;;;;5116837;28;20627;-75
2023/06/13 10:21:37;;;;;;;1.93;1.83;;;24.40;36.80;;;;;;5116396;28;20655;-75
2023/06/13 10:24:05;;;;;;;3.03;2.57;;;24.40;36.70;;;;;;5117468;27;20652;-75
2023/06/13 10:26:36;;;;;;;2.20;2.00;;;24.60;36.70;;;;;;5119648;27;20649;-76
2023/06/13 10:29:45;;;;;;;2.00;1.90;;;24.70;35.60;;;;;;5117725;27;21597;-75
2023/06/13 10:32:24;;;;;;;2.73;2.27;;;24.50;35.00;;;;;;5031808;28;21508;-76
2023/06/13 10:35:22;;;;;;;1.97;1.87;;;24.80;34.60;;;;;;5119296;27;20668;-75
2023/06/13 10:38:33;;;;;;;2.07;1.87;;;24.90;34.40;;;;;;5110656;28;20712;-76
2023/06/13 10:41:29;;;;;;;2.10;2.00;;;25.00;33.50;;;;;;5110490;28;20751;-76
2023/06/13 10:44:02;;;;;;;2.70;2.50;;;25.00;34.50;;;;;;5110349;28;20651;-75
2023/06/13 10:46:29;;;;;;;3.07;2.60;;;25.00;33.70;;;;;;5117700;28;20648;-76
2023/06/13 10:48:59;;;;;;;2.50;2.30;;;25.10;34.60;;;;;;5118989;28;21074;-76
2023/06/13 10:51:28;;;;;;;3.30;2.63;;;25.20;34.50;;;;;;5118614;28;20698;-77
2023/06/13 10:54:08;;;;;;;3.03;2.80;;;25.30;34.00;;;;;;5115614;28;20620;-75
2023/06/13 10:56:39;;;;;;;3.43;2.97;;;25.50;33.30;;;;;;5117021;28;20989;-76
2023/06/13 10:59:06;;;;;;;2.47;2.27;;;25.70;31.90;;;;;;5118575;28;20627;-75
2023/06/13 11:01:35;;;;;;;2.37;2.00;;;25.80;33.00;;;;;;5118760;28;20651;-76
2023/06/13 11:04:10;;;;;;;2.70;2.50;;;25.80;32.90;;;;;;5116028;28;21347;-76
2023/06/13 11:06:37;;;;;;;2.37;2.20;;;25.70;33.20;;;;;;5115652;28;20854;-76
2023/06/13 11:09:19;;;;;;;2.57;2.40;;;26.00;32.70;;;;;;5107525;27;20620;-76
2023/06/13 11:11:51;;;;;;;2.97;2.73;;;26.00;32.70;;;;;;5120267;27;20674;-76
2023/06/13 11:14:21;;;;;;;3.20;2.90;;;26.20;33.60;;;;;;5122813;27;20714;-76
2023/06/13 11:16:48;;;;;;;3.07;2.80;;;26.40;33.00;;;;;;5122182;27;20678;-76
2023/06/13 11:19:16;;;;;;;2.77;2.37;;;26.60;32.50;;;;;;5119165;27;20620;-75
2023/06/13 11:21:47;;;;;;;2.83;2.53;;;26.80;33.10;;;;;;5119518;27;20647;-76
2023/06/13 11:24:18;;;;;;;3.47;3.00;;;27.00;33.70;;;;;;5122198;27;20603;-76
2023/06/13 11:26:47;;;;;;;3.37;2.73;;;27.10;33.60;;;;;;5122858;27;20649;-76
2023/06/13 11:29:15;;;;;;;2.10;2.00;;;27.40;34.20;;;;;;5119618;27;20631;-76
2023/06/13 11:31:43;;;;;;;2.63;2.37;;;27.30;32.90;;;;;;5118731;27;20679;-76
2023/06/13 11:34:17;;;;;;;2.53;2.23;;;27.50;32.30;;;;;;5119796;27;20635;-76
2023/06/13 11:36:45;;;;;;;2.27;2.17;;;27.60;33.70;;;;;;5122782;27;20650;-76
2023/06/13 11:39:14;;;;;;;2.50;2.30;;;28.20;33.10;;;;;;5121056;27;20624;-76
2023/06/13 11:41:42;;;;;;;1.93;1.83;;;28.50;32.60;;;;;;5121485;27;21005;-76
2023/06/13 11:44:10;;;;;;;4.53;2.53;;;28.60;32.20;;;;;;5122021;27;20631;-76
2023/06/13 11:46:43;;;;;;;2.87;2.37;;;28.70;31.60;;;;;;5119680;27;20643;-76
2023/06/13 11:49:12;;;;;;;2.30;2.20;;;29.00;32.70;;;;;;5118416;27;20631;-73
2023/06/13 11:51:39;;;;;;;3.50;2.90;;;29.30;31.30;;;;;;5121301;27;20761;-74
2023/06/13 11:54:06;;;;;;;3.40;2.67;;;29.40;31.80;;;;;;5122529;27;20619;-74
2023/06/13 11:56:36;;;;;;;2.50;2.30;;;29.80;31.50;;;;;;5120513;27;20676;-74
2023/06/13 11:59:17;;;;;;;2.20;2.00;;;30.50;30.20;;;;;;5123270;27;21832;-74
2023/06/13 12:01:44;;;;;;;2.70;2.50;;;30.80;30.10;;;;;;5120835;27;20650;-73
2023/06/13 12:04:11;;;;;;;2.30;2.03;;;31.80;30.20;;;;;;5118464;27;20612;-74
2023/06/13 12:06:40;;;;;;;2.20;2.07;;;32.50;28.90;;;;;;5119275;27;20743;-74
2023/06/13 12:09:07;;;;;;;2.70;2.20;;;32.80;29.00;;;;;;5120497;27;20668;-75
2023/06/13 12:11:34;;;;;;;2.50;2.30;;;33.90;29.00;;;;;;5121894;27;20723;-75
2023/06/13 12:14:02;;;;;;;2.77;2.57;;;34.00;28.20;;;;;;5119243;27;21389;-75
2023/06/13 12:16:33;;;;;;;2.90;2.70;;;33.90;28.00;;;;;;5118448;27;21262;-75
2023/06/13 12:19:00;;;;;;;2.10;1.97;;;34.30;27.60;;;;;;5119291;27;20623;-74
2023/06/13 12:21:29;;;;;;;2.60;2.40;;;35.10;27.30;;;;;;5119933;27;21115;-75
2023/06/13 12:23:57;;;;;;;2.47;2.30;;;35.00;27.20;;;;;;5121235;27;21261;-76
2023/06/13 12:26:24;;;;;;;2.60;2.40;;;35.60;26.50;;;;;;5118257;27;20693;-75
2023/06/13 12:28:55;;;;;;;2.70;2.50;;;35.30;27.00;;;;;;5117842;27;20630;-75
2023/06/13 12:31:32;;;;;;;3.30;3.00;;;35.20;28.00;;;;;;5120818;27;20697;-75
2023/06/13 12:34:09;;;;;;;2.67;2.50;;;35.40;26.90;;;;;;5120636;27;21255;-75
2023/06/13 12:36:40;;;;;;;2.83;2.63;;;35.30;27.20;;;;;;5110560;27;20611;-75
2023/06/13 12:39:09;;;;;;;2.80;2.60;;;35.60;26.80;;;;;;5117615;27;20194;-75
2023/06/13 12:41:37;;;;;;;3.37;3.07;;;35.70;26.40;;;;;;5111292;27;20709;-75
2023/06/13 12:44:04;;;;;;;3.47;3.20;;;36.50;26.00;;;;;;5121458;27;20285;-75
2023/06/13 12:46:38;;;;;;;3.00;2.80;;;36.90;25.80;;;;;;5118222;27;20225;-75
2023/06/13 12:49:08;;;;;;;2.80;2.60;;;36.60;25.90;;;;;;5117511;27;20605;-75
2023/06/13 12:51:41;;;;;;;3.07;2.77;;;36.50;26.60;;;;;;5119719;27;20229;-75
2023/06/13 12:54:15;;;;;;;3.40;3.13;;;36.80;25.90;;;;;;5121193;27;20204;-75
2023/06/13 12:56:55;;;;;;;2.90;2.70;;;36.80;26.00;;;;;;5118570;27;20215;-75